Time;durP1;ratioP1;P1;durP2;ratioP2;P2;SDS_P1;SDS_P2;PMS_P1;PMS_P2;Temp;Humidity;BMP_temperature;BMP_pressure;BME280_temperature;BME280_humidity;BME280_pressure;Samples;Min_cycle;Max_cycle;Signal;HPM_P1;HPM_P2
2022/06/26 00:00:20;;;;;;;2.53;1.80;;;23.90;46.30;;;;;;20584;6830;279478;31
2022/06/26 00:02:45;;;;;;;2.60;1.70;;;23.80;46.40;;;;;;20576;6832;309392;31
2022/06/26 00:05:11;;;;;;;3.75;1.70;;;24.00;45.80;;;;;;20499;6852;294419;31
2022/06/26 00:07:36;;;;;;;1.80;1.70;;;24.20;45.20;;;;;;20565;6829;278504;31
2022/06/26 00:10:02;;;;;;;2.50;1.40;;;24.30;44.70;;;;;;20792;6830;117373;31
2022/06/26 00:12:28;;;;;;;1.60;1.60;;;24.10;45.20;;;;;;20777;6832;116835;31
2022/06/26 00:14:53;;;;;;;2.27;1.70;;;23.80;45.80;;;;;;20786;6832;117500;31
2022/06/26 00:17:19;;;;;;;1.75;1.65;;;23.50;46.20;;;;;;20554;6832;279566;31
2022/06/26 00:19:44;;;;;;;1.50;1.40;;;23.70;45.70;;;;;;20745;6832;120529;31
2022/06/26 00:22:11;;;;;;;1.50;1.50;;;23.60;46.00;;;;;;20584;6832;292585;31
2022/06/26 00:24:37;;;;;;;2.90;1.50;;;23.70;45.30;;;;;;20797;6830;117021;31
2022/06/26 00:27:03;;;;;;;1.90;1.80;;;23.70;46.00;;;;;;20804;6830;117003;31
2022/06/26 00:29:28;;;;;;;1.70;1.60;;;23.30;46.50;;;;;;20570;6830;282990;31
2022/06/26 00:31:53;;;;;;;1.97;1.87;;;23.40;46.30;;;;;;20769;6830;117115;31
2022/06/26 00:34:20;;;;;;;1.98;1.80;;;23.30;46.50;;;;;;20591;6830;277519;31
2022/06/26 00:36:46;;;;;;;1.70;1.60;;;23.40;46.30;;;;;;20583;6830;291614;31
2022/06/26 00:39:11;;;;;;;1.90;1.80;;;23.70;46.00;;;;;;20801;6830;117075;31
2022/06/26 00:41:38;;;;;;;2.27;1.80;;;23.50;46.40;;;;;;20570;6830;309607;31
2022/06/26 00:44:04;;;;;;;2.20;2.00;;;23.50;46.70;;;;;;20619;6830;308470;31
2022/06/26 00:46:29;;;;;;;1.90;1.80;;;23.70;46.70;;;;;;20772;6830;116822;31
2022/06/26 00:48:55;;;;;;;1.90;1.90;;;23.50;47.00;;;;;;20791;6830;117660;31
2022/06/26 00:51:20;;;;;;;1.80;1.70;;;23.10;47.40;;;;;;20794;6830;117405;31
2022/06/26 00:53:46;;;;;;;2.03;1.80;;;22.80;47.80;;;;;;20771;6830;119556;31
2022/06/26 00:56:11;;;;;;;2.10;1.80;;;22.60;48.20;;;;;;20580;6830;290488;31
2022/06/26 00:58:37;;;;;;;2.20;1.97;;;22.80;48.20;;;;;;20791;6830;118076;31
2022/06/26 01:01:02;;;;;;;2.43;2.20;;;22.90;48.40;;;;;;20584;6830;283131;31
2022/06/26 01:03:28;;;;;;;2.13;2.03;;;23.00;48.90;;;;;;20757;6830;119139;31
2022/06/26 01:05:54;;;;;;;2.20;2.03;;;22.90;49.00;;;;;;20790;6830;118362;31
2022/06/26 01:08:20;;;;;;;2.40;2.20;;;22.70;49.50;;;;;;20565;6830;308137;31
2022/06/26 01:10:46;;;;;;;2.03;1.93;;;22.80;49.40;;;;;;20580;6830;312933;31
2022/06/26 01:13:12;;;;;;;2.10;2.00;;;23.20;49.20;;;;;;20514;6852;311193;31
2022/06/26 01:15:39;;;;;;;1.77;1.67;;;23.40;48.60;;;;;;20782;6830;117900;31
2022/06/26 01:18:03;;;;;;;2.20;1.90;;;23.20;48.70;;;;;;20582;6830;278580;31
2022/06/26 01:20:28;;;;;;;1.80;1.70;;;23.30;48.70;;;;;;20789;6831;117084;31
2022/06/26 01:23:07;;;;;;;1.97;1.83;;;23.20;48.90;;;;;;20580;6832;279339;31
2022/06/26 01:25:46;;;;;;;1.98;1.77;;;23.30;48.60;;;;;;20560;6832;323666;31
2022/06/26 01:28:12;;;;;;;2.30;2.20;;;23.60;48.20;;;;;;20600;6839;117425;31
2022/06/26 01:30:39;;;;;;;1.77;1.40;;;23.40;48.40;;;;;;20776;6837;117804;31
2022/06/26 01:33:05;;;;;;;2.00;1.80;;;23.20;48.70;;;;;;20576;6830;279800;31
2022/06/26 01:35:30;;;;;;;1.77;1.67;;;23.30;48.30;;;;;;20555;6830;278701;31
2022/06/26 01:37:56;;;;;;;2.00;1.70;;;23.60;47.70;;;;;;20569;6832;308176;31
2022/06/26 01:40:24;;;;;;;2.78;1.90;;;23.80;47.20;;;;;;20789;6832;117528;31
2022/06/26 01:42:47;;;;;;;1.70;1.60;;;23.50;47.50;;;;;;20765;6832;117472;31
2022/06/26 01:45:12;;;;;;;1.90;1.77;;;23.20;48.30;;;;;;20750;6843;121421;31
2022/06/26 01:47:38;;;;;;;1.93;1.80;;;23.00;49.20;;;;;;20539;6837;280403;31
2022/06/26 01:50:03;;;;;;;1.90;1.77;;;23.10;49.50;;;;;;20724;6852;117598;31
2022/06/26 01:52:29;;;;;;;1.80;1.80;;;23.00;49.40;;;;;;20770;6830;117143;31
2022/06/26 01:54:55;;;;;;;2.40;1.80;;;22.90;49.80;;;;;;20788;6830;116888;31
2022/06/26 01:57:21;;;;;;;2.70;1.87;;;22.70;50.10;;;;;;20786;6832;116873;31
2022/06/26 01:59:47;;;;;;;3.43;2.00;;;22.60;50.40;;;;;;20545;6832;307613;31
2022/06/26 02:02:13;;;;;;;2.13;2.03;;;22.80;50.00;;;;;;20571;6832;337577;31
2022/06/26 02:04:38;;;;;;;2.10;2.00;;;23.20;49.80;;;;;;20566;6832;308874;31
2022/06/26 02:07:04;;;;;;;2.10;2.00;;;23.40;49.20;;;;;;20791;6830;117033;31
2022/06/26 02:15:04;;;;;;;2.00;1.80;;;23.00;49.70;;;;;;20807;6830;119317;31
2022/06/26 02:17:29;;;;;;;1.90;1.80;;;22.70;50.40;;;;;;20568;6830;338499;31
2022/06/26 02:19:55;;;;;;;2.53;2.20;;;22.80;50.40;;;;;;20587;6830;311137;31
2022/06/26 02:22:21;;;;;;;2.97;1.75;;;23.00;49.80;;;;;;20799;6830;117232;31
2022/06/26 02:24:46;;;;;;;2.00;1.90;;;22.90;49.90;;;;;;20585;6830;279217;31
2022/06/26 02:27:12;;;;;;;2.20;2.10;;;23.00;50.00;;;;;;20595;6830;309767;31
2022/06/26 02:29:38;;;;;;;2.10;2.00;;;23.20;49.80;;;;;;20785;6830;120163;31
2022/06/26 02:32:03;;;;;;;2.03;1.83;;;23.00;49.80;;;;;;20792;6829;117098;31
2022/06/26 02:34:29;;;;;;;2.23;2.03;;;22.70;50.30;;;;;;20579;6830;302050;31
2022/06/26 02:36:54;;;;;;;2.47;1.73;;;22.80;50.30;;;;;;20793;6830;119967;31
2022/06/26 02:39:20;;;;;;;2.30;2.00;;;22.70;50.40;;;;;;20514;6851;280385;31
2022/06/26 02:41:45;;;;;;;4.03;2.08;;;22.80;50.20;;;;;;20779;6830;117279;31
2022/06/26 02:44:11;;;;;;;2.10;2.00;;;22.70;50.30;;;;;;20584;6830;280111;31
2022/06/26 02:46:37;;;;;;;2.00;1.90;;;22.90;50.90;;;;;;20786;6832;117032;31
2022/06/26 02:49:03;;;;;;;2.00;1.90;;;22.80;50.30;;;;;;20578;6832;279409;31
2022/06/26 02:51:29;;;;;;;2.00;1.90;;;22.90;49.90;;;;;;20765;6832;117391;31
2022/06/26 02:53:54;;;;;;;2.07;1.97;;;22.80;50.10;;;;;;20786;6832;116936;31
2022/06/26 02:56:20;;;;;;;1.60;1.60;;;22.50;50.40;;;;;;20785;6832;117497;31
2022/06/26 02:58:45;;;;;;;2.10;2.00;;;22.30;50.80;;;;;;20552;6837;309070;31
2022/06/26 03:01:12;;;;;;;3.77;2.17;;;22.50;50.80;;;;;;20795;6830;117084;31
2022/06/26 03:03:36;;;;;;;3.23;1.97;;;22.50;50.80;;;;;;20762;6832;117285;31
2022/06/26 03:06:02;;;;;;;2.10;2.00;;;22.40;51.10;;;;;;20576;6832;307645;31
2022/06/26 03:08:27;;;;;;;1.70;1.60;;;22.60;51.50;;;;;;20781;6832;118137;31
2022/06/26 03:10:54;;;;;;;1.80;1.70;;;22.60;51.20;;;;;;20519;6852;283210;31
2022/06/26 03:13:20;;;;;;;2.15;2.00;;;22.80;51.30;;;;;;20584;6830;278976;31
2022/06/26 03:15:46;;;;;;;2.12;1.92;;;23.10;50.50;;;;;;20559;6830;307510;31
2022/06/26 03:18:11;;;;;;;2.27;2.07;;;23.40;50.20;;;;;;20786;6832;117503;31
2022/06/26 03:20:37;;;;;;;2.13;1.90;;;23.20;50.20;;;;;;20790;6832;116831;31
2022/06/26 03:23:02;;;;;;;1.75;1.75;;;22.90;50.60;;;;;;20515;6852;311601;31
2022/06/26 03:25:29;;;;;;;4.70;2.20;;;23.00;50.50;;;;;;20783;6830;120430;31
2022/06/26 03:27:53;;;;;;;2.00;1.90;;;22.90;50.60;;;;;;20589;6830;278405;31
2022/06/26 03:30:19;;;;;;;2.97;1.90;;;23.00;50.40;;;;;;20777;6837;117021;31
2022/06/26 03:32:45;;;;;;;1.97;1.80;;;22.90;50.50;;;;;;20585;6830;301988;31
2022/06/26 03:35:11;;;;;;;2.17;2.00;;;23.00;50.50;;;;;;20799;6830;117501;31
2022/06/26 03:37:36;;;;;;;1.97;1.87;;;22.90;50.50;;;;;;20707;6852;120273;31
2022/06/26 03:40:01;;;;;;;1.90;1.80;;;22.70;51.00;;;;;;20788;6830;118795;31
2022/06/26 03:42:27;;;;;;;1.80;1.80;;;22.50;51.40;;;;;;20572;6829;307978;31
2022/06/26 03:44:52;;;;;;;2.00;1.90;;;22.70;51.00;;;;;;20582;6832;338194;31
2022/06/26 03:47:18;;;;;;;2.07;1.97;;;23.00;50.70;;;;;;20577;6832;279177;31
2022/06/26 03:49:43;;;;;;;2.20;2.00;;;23.30;50.70;;;;;;20555;6832;309515;31
2022/06/26 03:52:09;;;;;;;2.10;2.00;;;23.50;50.70;;;;;;20725;6851;117592;31
2022/06/26 03:54:35;;;;;;;2.40;2.30;;;23.30;50.80;;;;;;20575;6830;279654;31
2022/06/26 03:57:00;;;;;;;2.27;2.17;;;23.30;50.90;;;;;;20791;6830;119447;31
2022/06/26 03:59:26;;;;;;;2.17;1.90;;;23.10;51.00;;;;;;20761;6832;117058;31
2022/06/26 04:01:51;;;;;;;2.20;2.00;;;22.80;51.50;;;;;;20782;6832;119717;31
2022/06/26 04:04:17;;;;;;;2.13;1.90;;;22.60;52.00;;;;;;20725;6852;119743;31
2022/06/26 04:06:42;;;;;;;2.20;2.10;;;22.40;52.20;;;;;;20783;6830;119657;31
2022/06/26 04:09:08;;;;;;;2.40;2.20;;;22.20;52.40;;;;;;20561;6837;308021;31
2022/06/26 04:11:33;;;;;;;1.92;1.80;;;22.50;52.60;;;;;;20785;6830;117624;31
2022/06/26 04:13:59;;;;;;;2.00;1.90;;;22.50;52.40;;;;;;20799;6832;117438;31
2022/06/26 04:16:25;;;;;;;2.33;2.15;;;22.40;52.50;;;;;;20747;6832;117407;31
2022/06/26 04:18:50;;;;;;;2.05;1.92;;;22.30;52.60;;;;;;20794;6832;116873;31
2022/06/26 04:21:16;;;;;;;2.10;2.00;;;22.20;52.70;;;;;;20585;6832;279651;31
2022/06/26 04:23:41;;;;;;;2.10;2.00;;;22.50;52.30;;;;;;20778;6832;120773;31
2022/06/26 04:26:07;;;;;;;2.20;2.10;;;22.50;52.10;;;;;;20577;6832;277960;31
2022/06/26 04:28:32;;;;;;;2.33;2.13;;;22.80;51.50;;;;;;20586;6830;308586;31
2022/06/26 04:30:58;;;;;;;2.30;2.10;;;23.10;50.90;;;;;;20793;6830;118599;31
2022/06/26 04:33:23;;;;;;;2.07;1.97;;;23.00;50.90;;;;;;20559;6830;278794;31
2022/06/26 04:35:49;;;;;;;2.23;2.03;;;23.20;50.80;;;;;;20584;6830;278986;31
2022/06/26 04:38:15;;;;;;;2.00;1.90;;;23.40;50.20;;;;;;20783;6830;117037;31
2022/06/26 04:40:40;;;;;;;3.47;2.20;;;23.30;50.30;;;;;;20567;6830;309455;31
2022/06/26 04:43:06;;;;;;;2.20;2.10;;;23.40;50.40;;;;;;20793;6830;116924;31
2022/06/26 04:45:31;;;;;;;3.07;2.10;;;23.30;50.70;;;;;;20566;6830;278551;31
2022/06/26 04:47:57;;;;;;;2.50;2.30;;;23.30;50.20;;;;;;20574;6830;308342;31
2022/06/26 04:50:22;;;;;;;2.37;2.17;;;23.50;50.30;;;;;;20583;6830;284623;31
2022/06/26 04:52:49;;;;;;;2.25;2.05;;;23.70;49.90;;;;;;20577;6830;280974;31
2022/06/26 04:55:14;;;;;;;2.20;2.10;;;23.80;49.50;;;;;;20581;6829;337440;31
2022/06/26 04:57:39;;;;;;;2.15;2.00;;;23.90;49.50;;;;;;20565;6830;296217;31
2022/06/26 05:00:08;;;;;;;2.65;2.30;;;24.00;49.40;;;;;;20797;6830;118087;31
2022/06/26 05:02:34;;;;;;;2.10;2.00;;;23.80;49.70;;;;;;20788;6830;116951;31
2022/06/26 05:05:01;;;;;;;2.57;2.27;;;23.50;50.20;;;;;;20796;6830;117351;31
2022/06/26 05:07:26;;;;;;;2.10;2.00;;;23.30;50.70;;;;;;20771;6830;117378;31
2022/06/26 05:09:52;;;;;;;2.42;2.33;;;23.20;51.00;;;;;;20803;6830;116999;31
2022/06/26 05:12:17;;;;;;;2.10;2.00;;;23.10;51.20;;;;;;20512;6851;310422;31
2022/06/26 05:14:43;;;;;;;2.20;2.10;;;23.40;51.00;;;;;;20799;6830;116941;31
2022/06/26 05:17:09;;;;;;;2.20;2.10;;;23.40;50.80;;;;;;20797;6830;117032;31
2022/06/26 05:19:34;;;;;;;2.25;2.10;;;23.40;50.90;;;;;;20747;6832;120523;31
2022/06/26 05:22:02;;;;;;;2.33;2.20;;;23.30;51.10;;;;;;20781;6832;117754;31
2022/06/26 05:24:25;;;;;;;2.70;2.20;;;23.20;51.20;;;;;;20719;6852;117360;31
2022/06/26 05:26:51;;;;;;;3.23;2.20;;;23.10;51.30;;;;;;20581;6830;279057;31
2022/06/26 05:29:16;;;;;;;2.43;2.30;;;23.40;50.90;;;;;;20576;6830;309174;31
2022/06/26 05:31:45;;;;;;;3.70;2.10;;;23.80;50.40;;;;;;20552;6832;313599;31
2022/06/26 05:34:10;;;;;;;2.30;2.20;;;24.00;50.00;;;;;;20566;6832;279104;31
2022/06/26 05:36:36;;;;;;;2.20;2.00;;;24.20;49.60;;;;;;20711;6852;117113;31
2022/06/26 05:39:02;;;;;;;2.17;2.03;;;24.10;49.80;;;;;;20767;6830;117010;31
2022/06/26 05:41:27;;;;;;;2.17;2.07;;;23.80;50.40;;;;;;20548;6830;311906;31
2022/06/26 05:43:53;;;;;;;2.40;2.12;;;23.90;50.30;;;;;;20794;6832;116989;31
2022/06/26 05:46:18;;;;;;;3.57;1.70;;;23.80;50.50;;;;;;20570;6832;277613;31
2022/06/26 05:48:44;;;;;;;1.83;1.67;;;23.90;50.40;;;;;;20574;6832;307767;31
2022/06/26 05:51:09;;;;;;;2.00;1.90;;;24.40;49.80;;;;;;20577;6832;279656;31
2022/06/26 05:53:37;;;;;;;1.80;1.70;;;24.80;49.00;;;;;;20567;6832;278208;31
2022/06/26 05:56:02;;;;;;;1.90;1.80;;;25.10;48.30;;;;;;20777;6837;120237;31
2022/06/26 05:58:28;;;;;;;4.23;1.87;;;25.10;48.60;;;;;;20792;6830;120814;31
2022/06/26 06:00:53;;;;;;;2.43;1.80;;;24.90;48.90;;;;;;20565;6830;278545;31
2022/06/26 06:03:20;;;;;;;2.17;1.97;;;25.10;48.40;;;;;;20568;6832;290921;31
2022/06/26 06:05:45;;;;;;;4.27;1.90;;;25.40;47.90;;;;;;20489;6850;278447;31
2022/06/26 06:08:11;;;;;;;4.65;1.95;;;25.70;47.00;;;;;;20589;6830;337750;31
2022/06/26 06:10:37;;;;;;;3.53;2.00;;;26.00;46.70;;;;;;20728;6851;117003;31
2022/06/26 06:13:02;;;;;;;2.53;1.87;;;26.20;47.60;;;;;;20550;6830;307740;31
2022/06/26 06:15:28;;;;;;;1.87;1.77;;;26.80;45.70;;;;;;20780;6830;117422;31
2022/06/26 06:17:53;;;;;;;2.00;1.80;;;27.40;45.90;;;;;;20572;6832;278500;31
2022/06/26 06:20:19;;;;;;;1.97;1.77;;;28.20;43.10;;;;;;20566;6832;278670;31
2022/06/26 06:22:44;;;;;;;1.63;1.53;;;29.10;41.30;;;;;;20562;6832;308592;31
2022/06/26 06:25:10;;;;;;;1.63;1.53;;;30.00;39.90;;;;;;20536;6832;339627;31
2022/06/26 06:27:35;;;;;;;2.77;1.73;;;30.70;38.50;;;;;;20756;6832;120305;31
2022/06/26 06:30:01;;;;;;;2.40;1.67;;;31.10;39.30;;;;;;20622;6832;276798;31
2022/06/26 06:32:26;;;;;;;1.40;1.40;;;31.50;37.50;;;;;;20824;6832;116907;31
2022/06/26 06:34:52;;;;;;;1.77;1.67;;;31.80;38.40;;;;;;20773;6830;117430;31
2022/06/26 06:37:18;;;;;;;3.07;1.37;;;31.80;38.70;;;;;;20790;6830;118222;31
2022/06/26 06:39:43;;;;;;;1.73;1.60;;;32.00;38.60;;;;;;20568;6830;339117;31
2022/06/26 06:42:09;;;;;;;1.62;1.52;;;32.50;35.70;;;;;;20584;6830;308695;31
2022/06/26 06:44:34;;;;;;;1.60;1.50;;;33.20;34.40;;;;;;20580;6830;279512;31
2022/06/26 06:47:00;;;;;;;2.63;1.60;;;33.80;33.70;;;;;;20576;6830;312059;31
2022/06/26 06:49:25;;;;;;;1.63;1.40;;;34.10;32.90;;;;;;20556;6830;308787;31
2022/06/26 06:51:51;;;;;;;1.80;1.70;;;34.30;32.50;;;;;;20591;6830;280548;31
2022/06/26 06:54:17;;;;;;;2.40;1.70;;;34.50;32.30;;;;;;20591;6830;280503;31
2022/06/26 06:56:42;;;;;;;1.42;1.42;;;34.70;32.20;;;;;;20587;6830;308428;31
2022/06/26 06:59:08;;;;;;;1.60;1.50;;;35.00;31.70;;;;;;20800;6830;117053;31
2022/06/26 07:01:33;;;;;;;1.70;1.60;;;34.90;32.70;;;;;;20560;6830;309489;31
2022/06/26 07:04:00;;;;;;;1.23;1.23;;;34.90;31.30;;;;;;20789;6830;117250;31
2022/06/26 07:06:25;;;;;;;1.33;1.27;;;34.70;32.00;;;;;;20589;6830;306842;31
2022/06/26 07:08:52;;;;;;;1.50;1.40;;;34.70;30.60;;;;;;20789;6830;117374;31
2022/06/26 07:11:19;;;;;;;1.70;1.60;;;34.30;32.00;;;;;;20581;6830;328938;31
2022/06/26 07:13:45;;;;;;;1.30;1.30;;;34.30;31.90;;;;;;20765;6830;117087;31
2022/06/26 07:16:10;;;;;;;1.83;1.30;;;34.20;32.80;;;;;;20792;6829;117599;31
2022/06/26 07:18:36;;;;;;;1.80;1.60;;;33.90;33.30;;;;;;20808;6829;116885;31
2022/06/26 07:21:02;;;;;;;2.23;1.60;;;33.60;34.70;;;;;;20797;6830;117404;31
2022/06/26 07:23:27;;;;;;;1.77;1.30;;;33.40;34.30;;;;;;20767;6830;121887;31
2022/06/26 07:25:53;;;;;;;2.43;1.60;;;33.10;34.60;;;;;;20808;6830;117340;31
2022/06/26 07:28:19;;;;;;;1.80;1.40;;;32.80;34.50;;;;;;20580;6830;339591;31
2022/06/26 07:30:45;;;;;;;1.73;1.62;;;32.90;34.10;;;;;;20586;6830;308973;31
2022/06/26 07:35:56;;;;;;;2.42;2.22;;;33.10;33.70;;;;;;20593;6830;337178;31
2022/06/26 07:38:22;;;;;;;1.50;1.40;;;33.00;33.50;;;;;;20796;6830;116842;31
2022/06/26 07:40:47;;;;;;;1.30;1.30;;;32.60;34.10;;;;;;20754;6830;117004;31
2022/06/26 07:43:13;;;;;;;1.90;1.73;;;32.10;34.80;;;;;;20786;6830;117277;31
2022/06/26 07:45:38;;;;;;;1.80;1.60;;;31.70;35.60;;;;;;20554;6830;307064;31
2022/06/26 07:48:04;;;;;;;1.57;1.53;;;31.80;35.70;;;;;;20777;6830;116969;31
2022/06/26 07:50:30;;;;;;;2.03;1.60;;;31.60;36.20;;;;;;20584;6830;308659;31
2022/06/26 07:52:55;;;;;;;2.50;1.50;;;31.70;35.90;;;;;;20806;6830;117073;31
2022/06/26 07:55:21;;;;;;;1.53;1.40;;;31.50;36.40;;;;;;20787;6830;117002;31
2022/06/26 07:57:46;;;;;;;1.75;1.65;;;31.30;36.70;;;;;;20570;6830;277549;31
2022/06/26 08:00:12;;;;;;;1.50;1.40;;;31.40;36.80;;;;;;20606;6830;308226;31
2022/06/26 08:02:39;;;;;;;1.27;1.20;;;31.60;34.50;;;;;;20804;6830;120635;31
2022/06/26 08:05:03;;;;;;;1.55;1.33;;;31.50;35.10;;;;;;20585;6830;307753;31
2022/06/26 08:07:29;;;;;;;1.23;1.23;;;31.40;35.60;;;;;;20796;6830;116866;31
2022/06/26 08:09:54;;;;;;;1.48;1.37;;;31.20;36.20;;;;;;20821;6830;117491;31
2022/06/26 08:12:20;;;;;;;1.52;1.42;;;30.80;36.30;;;;;;20605;6830;306715;31
2022/06/26 08:14:46;;;;;;;1.13;1.13;;;30.90;35.10;;;;;;20804;6830;116828;31
2022/06/26 08:17:11;;;;;;;1.30;1.20;;;30.90;35.90;;;;;;20754;6852;116854;31
2022/06/26 08:19:37;;;;;;;1.30;1.20;;;30.70;36.50;;;;;;20783;6830;120993;31
2022/06/26 08:22:02;;;;;;;1.20;1.20;;;30.60;36.80;;;;;;20601;6832;297888;31
2022/06/26 08:24:31;;;;;;;3.50;1.50;;;31.00;34.60;;;;;;20806;6832;117974;31
2022/06/26 08:26:56;;;;;;;1.40;1.30;;;31.00;35.20;;;;;;20589;6832;278402;31
2022/06/26 08:29:23;;;;;;;1.00;1.00;;;31.20;35.10;;;;;;20781;6830;116182;31
2022/06/26 08:31:49;;;;;;;1.10;1.10;;;31.30;35.00;;;;;;20568;6832;337406;31
2022/06/26 08:34:14;;;;;;;1.20;1.20;;;31.50;34.40;;;;;;20543;6832;306982;31
2022/06/26 08:36:41;;;;;;;1.17;1.10;;;31.80;33.80;;;;;;20518;6851;309569;31
2022/06/26 08:39:05;;;;;;;4.85;1.30;;;32.00;33.80;;;;;;20581;6830;312648;31
2022/06/26 08:41:34;;;;;;;1.07;1.00;;;32.10;34.00;;;;;;20563;6830;327432;31
2022/06/26 08:43:58;;;;;;;1.70;1.00;;;32.30;32.20;;;;;;20548;6832;298310;31
2022/06/26 08:46:22;;;;;;;1.77;1.10;;;32.30;32.70;;;;;;20777;6832;120632;31
2022/06/26 08:48:48;;;;;;;1.10;1.10;;;32.10;33.50;;;;;;20789;6832;119559;31
2022/06/26 08:51:13;;;;;;;1.80;1.10;;;31.90;34.20;;;;;;20500;6852;308979;31
2022/06/26 08:53:39;;;;;;;1.00;1.00;;;32.00;33.50;;;;;;20569;6830;278509;31
2022/06/26 08:56:06;;;;;;;1.30;0.87;;;32.30;33.10;;;;;;20789;6830;117185;31
2022/06/26 08:58:31;;;;;;;0.90;0.90;;;32.30;33.30;;;;;;20573;6832;278305;31
2022/06/26 09:00:57;;;;;;;1.30;1.20;;;32.50;32.80;;;;;;20520;6832;309402;31
2022/06/26 09:03:22;;;;;;;1.00;1.00;;;32.70;32.10;;;;;;20508;6852;308976;31
2022/06/26 09:05:48;;;;;;;0.73;0.73;;;32.80;31.80;;;;;;20682;6845;126526;31
2022/06/26 09:08:17;;;;;;;0.90;0.90;;;32.70;32.70;;;;;;20728;6845;117470;31
2022/06/26 09:10:43;;;;;;;0.90;0.90;;;32.50;33.00;;;;;;20527;6836;310822;31
2022/06/26 09:13:08;;;;;;;1.10;0.90;;;32.60;31.70;;;;;;20516;6847;281766;31
2022/06/26 09:15:34;;;;;;;1.00;1.00;;;32.80;31.90;;;;;;20535;6834;307974;31
2022/06/26 09:18:05;;;;;;;0.98;0.98;;;33.00;31.90;;;;;;20472;6839;315176;31
2022/06/26 09:20:31;;;;;;;1.17;1.17;;;33.10;30.80;;;;;;20695;6852;117579;31
2022/06/26 09:22:56;;;;;;;1.10;1.10;;;32.90;32.00;;;;;;20713;6852;116956;31
2022/06/26 09:25:33;;;;;;;1.35;1.30;;;32.70;32.90;;;;;;20504;6852;279042;31
2022/06/26 09:27:58;;;;;;;1.10;1.10;;;32.70;32.50;;;;;;20513;6852;279343;31
2022/06/26 09:30:23;;;;;;;1.12;1.10;;;33.00;32.40;;;;;;20476;6852;340611;31
2022/06/26 09:32:49;;;;;;;1.10;1.10;;;33.20;32.40;;;;;;20515;6852;338822;31
2022/06/26 09:35:18;;;;;;;1.10;1.10;;;33.30;31.90;;;;;;20505;6852;312064;31
2022/06/26 09:37:43;;;;;;;1.10;1.10;;;33.40;32.30;;;;;;20664;6858;117551;31
2022/06/26 09:40:09;;;;;;;1.08;1.08;;;33.20;32.30;;;;;;20747;6844;117287;31
2022/06/26 09:42:35;;;;;;;0.90;0.90;;;33.00;32.40;;;;;;20725;6845;119198;31
2022/06/26 09:45:01;;;;;;;1.10;1.10;;;32.70;32.90;;;;;;20739;6845;120503;31
2022/06/26 09:47:26;;;;;;;1.30;1.30;;;32.60;33.70;;;;;;20498;6845;277783;31
2022/06/26 09:49:52;;;;;;;1.10;1.10;;;32.80;33.90;;;;;;20717;6845;117220;31
2022/06/26 09:52:20;;;;;;;1.67;1.33;;;32.80;33.60;;;;;;20501;6851;312056;31
2022/06/26 09:54:46;;;;;;;1.30;1.30;;;33.00;33.30;;;;;;20721;6851;117313;31
2022/06/26 09:57:11;;;;;;;1.37;1.27;;;32.80;33.80;;;;;;20512;6851;338522;31
2022/06/26 09:59:38;;;;;;;1.33;1.33;;;32.80;33.70;;;;;;20705;6852;116869;31
2022/06/26 10:07:37;;;;;;;1.20;1.20;;;32.70;33.90;;;;;;20733;6845;117296;31
2022/06/26 10:10:03;;;;;;;1.27;1.27;;;32.50;33.80;;;;;;20531;6845;312067;31
2022/06/26 10:12:29;;;;;;;1.40;1.30;;;32.50;33.40;;;;;;20684;6852;117596;31
2022/06/26 10:14:55;;;;;;;1.20;1.20;;;32.50;33.90;;;;;;20568;6830;280290;31
2022/06/26 10:17:48;;;;;;;1.20;1.20;;;32.60;32.90;;;;;;20563;6830;320304;31
2022/06/26 10:20:13;;;;;;;1.00;1.00;;;32.70;32.70;;;;;;20562;6832;339814;31
2022/06/26 10:22:42;;;;;;;1.30;1.30;;;32.90;32.40;;;;;;20730;6832;117300;31
2022/06/26 10:25:08;;;;;;;1.30;1.30;;;32.80;32.90;;;;;;20556;6832;309347;31
2022/06/26 10:27:33;;;;;;;1.43;1.40;;;32.80;33.70;;;;;;20544;6832;295339;31
2022/06/26 10:30:08;;;;;;;1.40;1.40;;;33.00;34.20;;;;;;20712;6852;118356;31
2022/06/26 10:32:35;;;;;;;1.40;1.40;;;32.90;34.10;;;;;;20562;6830;279955;31
2022/06/26 10:35:01;;;;;;;1.30;1.20;;;33.00;32.80;;;;;;20784;6830;116981;31
2022/06/26 10:37:26;;;;;;;1.60;1.50;;;32.80;33.10;;;;;;20567;6832;307598;31
2022/06/26 10:39:53;;;;;;;1.40;1.40;;;32.80;33.20;;;;;;20480;6852;311028;31
2022/06/26 10:45:20;;;;;;;1.45;1.40;;;33.00;33.10;;;;;;20575;6830;307891;31
2022/06/26 10:47:46;;;;;;;1.50;1.40;;;33.00;33.50;;;;;;20748;6832;117788;31
2022/06/26 10:50:32;;;;;;;1.33;1.33;;;32.90;33.80;;;;;;20755;6832;117060;31
2022/06/26 10:53:20;;;;;;;1.77;1.15;;;32.70;33.70;;;;;;20561;6830;309336;31
2022/06/26 10:55:55;;;;;;;1.30;1.30;;;32.80;32.80;;;;;;20482;6832;339658;31
2022/06/26 10:58:21;;;;;;;1.13;1.13;;;33.00;33.00;;;;;;20522;6832;310472;31
2022/06/26 11:00:47;;;;;;;1.43;1.33;;;33.00;32.70;;;;;;20516;6832;337114;31
2022/06/26 11:03:14;;;;;;;1.00;1.00;;;33.00;32.70;;;;;;20476;6851;312214;31
2022/06/26 11:05:40;;;;;;;1.17;1.17;;;33.10;33.20;;;;;;20742;6830;121543;31
2022/06/26 11:08:05;;;;;;;1.20;1.20;;;33.00;33.10;;;;;;20718;6830;117728;31
2022/06/26 11:10:33;;;;;;;1.20;1.20;;;32.70;33.20;;;;;;20561;6832;280311;31
2022/06/26 11:12:57;;;;;;;1.10;1.10;;;32.70;32.50;;;;;;20560;6832;278400;31
2022/06/26 11:15:32;;;;;;;1.20;1.20;;;33.00;32.70;;;;;;20563;6837;280232;31
2022/06/26 11:18:04;;;;;;;1.27;1.17;;;33.20;32.50;;;;;;20560;6830;278927;31
2022/06/26 11:20:56;;;;;;;1.30;1.20;;;33.40;32.70;;;;;;20573;6830;278053;31
2022/06/26 11:23:25;;;;;;;1.20;1.20;;;33.60;31.80;;;;;;20539;6832;337160;31
2022/06/26 11:25:58;;;;;;;1.10;1.10;;;33.70;32.10;;;;;;20556;6832;310423;31
2022/06/26 11:28:26;;;;;;;1.00;1.00;;;33.80;31.40;;;;;;20558;6832;308509;31
2022/06/26 11:30:52;;;;;;;1.30;1.20;;;33.80;32.90;;;;;;20691;6852;118143;31
2022/06/26 11:33:24;;;;;;;1.10;1.10;;;33.50;32.00;;;;;;20772;6830;116822;31
2022/06/26 11:35:49;;;;;;;1.02;1.00;;;33.20;32.50;;;;;;20576;6832;340542;31
2022/06/26 11:38:15;;;;;;;1.20;1.10;;;33.20;31.80;;;;;;20800;6832;121378;31
2022/06/26 11:40:42;;;;;;;1.00;1.00;;;33.10;32.20;;;;;;20573;6832;309457;31
2022/06/26 11:43:07;;;;;;;0.93;0.90;;;33.10;32.20;;;;;;20581;6832;337302;31
2022/06/26 11:45:33;;;;;;;2.43;1.10;;;33.20;32.30;;;;;;20775;6832;117600;31
2022/06/26 11:48:00;;;;;;;1.07;1.07;;;33.00;32.50;;;;;;20794;6832;116202;31
2022/06/26 11:50:27;;;;;;;3.40;1.10;;;32.80;33.00;;;;;;20759;6832;117760;31
2022/06/26 11:52:56;;;;;;;0.93;0.93;;;32.50;33.20;;;;;;20759;6832;123796;31
2022/06/26 11:55:22;;;;;;;1.40;1.10;;;32.40;33.30;;;;;;20805;6830;117046;31
2022/06/26 11:57:47;;;;;;;1.07;0.80;;;32.20;33.60;;;;;;20789;6830;117066;31
2022/06/26 12:00:13;;;;;;;1.00;1.00;;;32.00;33.70;;;;;;20584;6830;307462;31
2022/06/26 12:02:41;;;;;;;1.00;1.00;;;32.20;32.80;;;;;;20579;6829;308910;31
2022/06/26 12:05:07;;;;;;;1.00;1.00;;;32.40;32.60;;;;;;20583;6830;307757;31
2022/06/26 12:07:39;;;;;;;1.23;1.20;;;32.70;32.10;;;;;;20802;6830;146451;31
2022/06/26 12:10:05;;;;;;;1.00;1.00;;;32.50;32.10;;;;;;20586;6830;306440;31
2022/06/26 12:12:31;;;;;;;0.97;0.97;;;32.50;31.90;;;;;;20652;6830;306402;31
2022/06/26 12:14:57;;;;;;;1.00;1.00;;;32.60;32.50;;;;;;20853;6830;115944;31
2022/06/26 12:17:25;;;;;;;1.00;1.00;;;32.40;33.10;;;;;;20647;6830;279016;31
2022/06/26 12:19:51;;;;;;;1.07;1.07;;;32.40;33.10;;;;;;20621;6830;278256;31
2022/06/26 12:22:27;;;;;;;1.10;1.10;;;32.50;32.30;;;;;;20864;6830;117131;31
2022/06/26 12:24:52;;;;;;;1.10;1.10;;;32.30;32.90;;;;;;20566;6852;278479;31
2022/06/26 12:27:17;;;;;;;1.10;1.00;;;32.30;32.90;;;;;;20794;6830;116879;31
2022/06/26 12:29:43;;;;;;;1.10;1.10;;;32.10;33.40;;;;;;20796;6830;117531;31
2022/06/26 12:32:08;;;;;;;1.80;1.00;;;31.90;34.10;;;;;;20616;6832;308548;31
2022/06/26 12:34:34;;;;;;;0.90;0.90;;;32.00;34.20;;;;;;20761;6832;121925;31
2022/06/26 12:37:00;;;;;;;1.90;1.20;;;31.90;33.90;;;;;;20782;6832;120934;31
2022/06/26 12:39:25;;;;;;;1.02;1.02;;;31.70;34.10;;;;;;20576;6830;277994;31
2022/06/26 12:41:51;;;;;;;1.03;1.00;;;31.70;33.30;;;;;;20785;6830;116960;31
2022/06/26 12:44:16;;;;;;;1.10;1.10;;;31.60;33.90;;;;;;20567;6830;308645;31
2022/06/26 12:46:42;;;;;;;1.00;1.00;;;31.70;34.50;;;;;;20576;6830;278137;31
2022/06/26 12:49:07;;;;;;;1.07;1.07;;;31.90;33.80;;;;;;20782;6830;117188;31
2022/06/26 12:51:33;;;;;;;1.20;1.10;;;31.90;34.10;;;;;;20520;6830;337678;31
2022/06/26 12:54:00;;;;;;;1.20;1.20;;;31.90;33.60;;;;;;20776;6830;117445;31
2022/06/26 12:56:26;;;;;;;1.30;1.30;;;31.80;33.50;;;;;;20565;6830;337128;31
2022/06/26 12:58:51;;;;;;;1.10;1.10;;;31.80;32.90;;;;;;20781;6830;119847;31